ADDS METAR Data INFO
IDs: Format: Raw Decoded Include TAF

Data at: 0349 UTC 20 Feb 2018

KDMW 200335Z AUTO 18005KT 2SM BR OVC002 08/08 A3031 RMK AO2
KDMW 200315Z AUTO 19005KT 2SM BR OVC002 07/07 A3031 RMK AO2
KDMW 200255Z AUTO 19006KT 1 3/4SM BR OVC002 07/07 A3032 RMK AO2
KDMW 200235Z AUTO 18005KT 1 3/4SM BR OVC002 07/07 A3031 RMK AO2
KDMW 200215Z AUTO 18004KT 1 1/4SM BR OVC002 07/07 A3032 RMK AO2
KDMW 200155Z AUTO 18005KT 1SM BR OVC002 07/07 A3032 RMK AO2
KDMW 200115Z AUTO 18006KT 3/4SM BR OVC002 07/07 A3031 RMK AO2
KDMW 200055Z AUTO 18005KT 3/4SM BR OVC002 07/07 A3031 RMK AO2
KDMW 200035Z AUTO 18005KT 3/4SM BR OVC002 07/07 A3032 RMK AO2
KDMW 200015Z AUTO 19005KT 3/4SM BR OVC002 07/07 A3033 RMK AO2
KDMW 192355Z AUTO 19007KT 3/4SM BR OVC002 07/07 A3032 RMK AO2
KDMW 192335Z AUTO 18008KT 1 1/4SM BR OVC002 07/07 A3031 RMK AO2
KDMW 192255Z AUTO 18008KT 1 1/2SM BR OVC002 07/07 A3032 RMK AO2
KDMW 192235Z AUTO 18007KT 1 1/2SM BR OVC002 07/07 A3032 RMK AO2
KDMW 192215Z AUTO 17007KT 3SM BR OVC004 07/07 A3031 RMK AO2
KDMW 192135Z AUTO 17009KT 5SM BR OVC004 08/08 A3031 RMK AO2
KDMW 192115Z AUTO 17009KT 7SM OVC004 08/08 A3030 RMK AO2
KDMW 192055Z AUTO 17008KT 4SM BR OVC004 08/08 A3031 RMK AO2
KDMW 192035Z AUTO 17009KT 2 1/2SM BR OVC006 08/08 A3031 RMK AO2
KDMW 192015Z AUTO 17010G15KT 3SM BR OVC006 07/07 A3033 RMK AO2
KDMW 191955Z AUTO 17008G14KT 3SM BR OVC006 07/07 A3033 RMK AO2
KDMW 191935Z AUTO 17011G15KT 2SM BR OVC004 07/07 A3033 RMK AO2
KDMW 191915Z AUTO 16008KT 1 1/2SM BR OVC006 07/07 A3033 RMK AO2
KDMW 191855Z AUTO 17008KT 3SM BR OVC006 07/06 A3035 RMK AO2
KDMW 191835Z AUTO 18007KT 7SM OVC006 07/06 A3035 RMK AO2
KDMW 191815Z AUTO 18011KT 10SM OVC008 07/06 A3035 RMK AO2
KDMW 191755Z AUTO 18010KT 7SM OVC008 06/05 A3036 RMK AO2
KDMW 191735Z AUTO 17008G14KT 10SM -RA OVC010 06/05 A3036 RMK AO2
KDMW 191715Z AUTO 17008KT 10SM OVC010 06/04 A3038 RMK AO2
KDMW 191635Z AUTO 18008KT 10SM BKN015 BKN019 OVC026 06/03 A3041 RMK AO2
KDMW 191615Z AUTO 17008KT 10SM SCT026 BKN031 OVC041 06/03 A3042 RMK AO2
KDMW 191555Z AUTO 18008KT 10SM SCT012 SCT024 OVC041 05/03 A3042 RMK AO2
KDMW 191535Z AUTO 17009KT 10SM SCT012 BKN024 OVC043 05/03 A3042 RMK AO2
KDMW 191515Z AUTO 17009KT 7SM DZ SCT014 OVC026 05/03 A3043 RMK AO2
KDMW 191455Z AUTO 18009KT 10SM OVC026 05/03 A3043 RMK AO2
KDMW 191435Z AUTO 17007KT 10SM SCT028 OVC043 05/03 A3043 RMK AO2
KDMW 191415Z AUTO 18008KT 10SM OVC045 04/03 A3043 RMK AO2
KDMW 191355Z AUTO 18006KT 10SM OVC045 04/03 A3043 RMK AO2
KDMW 191335Z AUTO 17008KT 10SM BKN045 BKN065 OVC070 04/02 A3042 RMK AO2
KDMW 191315Z AUTO 17008KT 10SM SCT031 OVC065 04/02 A3043 RMK AO2
KDMW 191255Z AUTO 17007KT 10SM BKN033 OVC065 03/02 A3044 RMK AO2
KDMW 191235Z AUTO 17009KT 10SM -RA BKN035 OVC085 03/02 A3044 RMK AO2 LTG DSNT W
KDMW 191215Z AUTO 18006KT 10SM BKN035 BKN044 OVC090 03/02 A3044 RMK AO2
KDMW 191155Z AUTO 18005KT 10SM BKN035 OVC100 03/02 A3044 RMK AO2
KDMW 191135Z AUTO 15006KT 10SM OVC035 03/01 A3042 RMK AO2
KDMW 191115Z AUTO 17004KT 10SM OVC037 03/02 A3045 RMK AO2
KDMW 191055Z AUTO 15005KT 10SM OVC037 03/01 A3044 RMK AO2
KDMW 191035Z AUTO 15004KT 10SM OVC037 03/01 A3044 RMK AO2
KDMW 191015Z AUTO 13006KT 10SM OVC037 03/01 A3044 RMK AO2
KDMW 190955Z AUTO 16005KT 10SM OVC039 03/01 A3044 RMK AO2
KDMW 190935Z AUTO 17006KT 10SM OVC039 03/01 A3043 RMK AO2
KDMW 190915Z AUTO 17005KT 10SM OVC037 03/01 A3045 RMK AO2
KDMW 190855Z AUTO 18007KT 10SM OVC037 03/01 A3044 RMK AO2
KDMW 190835Z AUTO 17009KT 10SM OVC041 03/01 A3044 RMK AO2
KDMW 190815Z AUTO 17007KT 10SM OVC043 03/01 A3044 RMK AO2
KDMW 190755Z AUTO 17011KT 10SM OVC043 03/01 A3043 RMK AO2
KDMW 190735Z AUTO 15012G17KT 10SM OVC043 03/01 A3042 RMK AO2
KDMW 190715Z AUTO 14011G16KT 10SM BKN043 03/01 A3044 RMK AO2
KDMW 190655Z AUTO 15009KT 10SM OVC043 03/01 A3044 RMK AO2
KDMW 190635Z AUTO 16009KT 10SM OVC043 02/00 A3045 RMK AO2
KDMW 190615Z AUTO 16007KT 10SM BKN043 02/00 A3045 RMK AO2
KDMW 190555Z AUTO 15008KT 10SM CLR 02/00 A3044 RMK AO2
KDMW 190535Z AUTO 15006KT 10SM CLR 02/00 A3045 RMK AO2
KDMW 190515Z AUTO 13008KT 10SM CLR 02/00 A3045 RMK AO2
KDMW 190455Z AUTO 13008KT 10SM CLR 02/00 A3044 RMK AO2
KDMW 190435Z AUTO 14007KT 10SM CLR 02/M01 A3044 RMK AO2
KDMW 190415Z AUTO 14007KT 10SM CLR 02/M01 A3045 RMK AO2
KDMW 190355Z AUTO 14009KT 10SM CLR 02/M01 A3044 RMK AO2
KDMW 190335Z AUTO 14004KT 10SM CLR 02/M01 A3045 RMK AO2
KDMW 190315Z AUTO 13004KT 10SM CLR 03/M01 A3045 RMK AO2
KDMW 190255Z AUTO 00000KT 10SM CLR 03/M01 A3045 RMK AO2
KDMW 190235Z AUTO 00000KT 10SM CLR 02/M01 A3044 RMK AO2
KDMW 190215Z AUTO 00000KT 10SM CLR 02/M01 A3043 RMK AO2
KDMW 190155Z AUTO 00000KT 10SM CLR 02/M01 A3042 RMK AO2
KDMW 190135Z AUTO 00000KT 10SM CLR 02/M01 A3041 RMK AO2
KDMW 190115Z AUTO 09003KT 10SM CLR 03/M01 A3041 RMK AO2
KDMW 190055Z AUTO 09003KT 10SM CLR 03/M01 A3042 RMK AO2
KDMW 190035Z AUTO 00000KT 10SM CLR 03/M01 A3042 RMK AO2
KDMW 190015Z AUTO 08003KT 10SM CLR 04/M01 A3042 RMK AO2
KDMW 182355Z AUTO 06003KT 10SM CLR 04/M01 A3041 RMK AO2
KDMW 182335Z AUTO 03003KT 10SM CLR 05/M01 A3041 RMK AO2
KDMW 182315Z AUTO 00000KT 10SM CLR 06/M01 A3042 RMK AO2
KDMW 182255Z AUTO 00000KT 10SM CLR 06/M01 A3041 RMK AO2
KDMW 182235Z AUTO 22004KT 10SM CLR 07/M01 A3041 RMK AO2
KDMW 182215Z AUTO 24003KT 10SM CLR 08/M01 A3041 RMK AO2
KDMW 182155Z AUTO 23003KT 10SM CLR 08/M01 A3040 RMK AO2
KDMW 182135Z AUTO 28005KT 10SM CLR 08/M01 A3039 RMK AO2
KDMW 182115Z AUTO 00000KT 10SM CLR 08/M01 A3039 RMK AO2
KDMW 182055Z AUTO 28005KT 10SM CLR 08/M01 A3039 RMK AO2
KDMW 182035Z AUTO 30005KT 10SM CLR 08/M01 A3038 RMK AO2
KDMW 182015Z AUTO 28005KT 10SM CLR 08/M01 A3037 RMK AO2
KDMW 181955Z AUTO 28006KT 10SM CLR 08/M01 A3037 RMK AO2
KDMW 181935Z AUTO 26008KT 10SM CLR 07/M01 A3037 RMK AO2
KDMW 181915Z AUTO 25008KT 10SM CLR 07/M01 A3036 RMK AO2
KDMW 181855Z AUTO 28006KT 10SM CLR 07/M01 A3036 RMK AO2
KDMW 181835Z AUTO 24005KT 10SM CLR 07/M02 A3037 RMK AO2 P0002
KDMW 181815Z AUTO 33004KT 10SM CLR 07/M01 A3037 RMK AO2 P0002
KDMW 181755Z AUTO 26004KT 10SM CLR 06/M01 A3038 RMK AO2 P0001
KDMW 181735Z AUTO 00000KT 10SM SCT038 06/M01 A3039 RMK AO2 P0007
KDMW 181715Z AUTO 26005KT 10SM SCT038 06/M01 A3039 RMK AO2 P0005
KDMW 181655Z AUTO 28004KT 10SM BKN036 06/00 A3038 RMK AO2 P0002
KDMW 181635Z AUTO 33003KT 10SM BKN034 05/M01 A3038 RMK AO2 P0006
KDMW 181615Z AUTO 30006KT 10SM SCT031 SCT037 05/01 A3036 RMK AO2 P0002
KDMW 181555Z AUTO 30003KT 10SM SCT037 04/01 A3035 RMK AO2